Aérodrome :
LOGIN :

S'inscrire | Disclaimer

   EN    FR    IT 

 










Légende :    VFR   VFR Marginal   IFR   IFR Intensif   IFR Très Intensif
Visi : 
Plafond : 
>= 8 km
>= 3000ft
5 à 8 km
1000 à 3000 ft
1500m à 5 km
500 à 1000 ft
800 à 1500m
200 à 500 ft
< 800m
< 200 ft
Symboles :   Orages  Brouillard  Fortes neiges  Fortes précipitations  Vent > 20 kt
SIGMETs :   Divers  Orages  Givrage  Turbulence  Onde Orograph.  Cendres Volcan.






- Altitude de l'aérodrome : 20 ft
- Code IATA : LSI


EGPB - Sumburgh

DERNIER METAR :
  • 191720Z AUTO 04023G33KT 7000 -RA FEW013/// SCT020/// BKN034/// 08/05 Q1006

METARs EXPIRÉS :
  • 191650Z AUTO 04024G39KT 9999 BKN021/// OVC036/// 09/04 Q1006
  • 191550Z 04025G35KT 9999 VCSH SCT024 BKN041 09/05 Q1005
  • 191520Z 05025G36KT 9999 -SHRA SCT020 BKN036 09/06 Q1005
  • 191450Z 05026KT 9999 -SHRA SCT021 BKN035 09/06 Q1005

TAF TAF EGPB
Valide du 19 à 18h jusqu'au 20 à 03h UTC


191659Z 1918/2003 04020KT 9999 SCT020
TEMPO 1918/2003 04025G35KT



MET'MAP, la Météo Aéronautique d'un coup d'oeil ! - Copyright ORBIFLY Décembre 2007 - Disclaimer

ORBIFLY MET'MAP TEAM :

Programmation & Développement : Alexandra Zaïnal
Conception & Développement : Baudouin d'Aumeries
Co-Programmation & Développement : Marc-Olivier Méhu
Soutien technique & logistique : Manuel Goepfert

Contact : metmap@orbifly.com




SOURCES & CREDITS :

   NOAA